createdAt,value
2019-06-10T00:02:06.934Z,5.42
2019-06-10T00:04:36.910Z,5.50
2019-06-10T00:07:07.369Z,5.17
2019-06-10T00:09:37.086Z,5.50
2019-06-10T00:12:08.157Z,5.85
2019-06-10T00:14:38.226Z,5.35
2019-06-10T00:17:08.141Z,5.65
2019-06-10T00:19:37.735Z,5.72
2019-06-10T00:22:08.406Z,5.20
2019-06-10T00:24:40.763Z,6.30
2019-06-10T00:27:11.726Z,6.60
2019-06-10T00:29:41.435Z,5.90
2019-06-10T00:32:13.045Z,5.80
2019-06-10T00:34:42.204Z,5.78
2019-06-10T00:37:14.487Z,5.60
2019-06-10T00:39:43.456Z,5.75
2019-06-10T00:42:14.999Z,6.50
2019-06-10T00:44:45.192Z,5.75
2019-06-10T00:47:15.470Z,6.10
2019-06-10T00:49:45.112Z,6.00
2019-06-10T00:52:15.251Z,6.62
2019-06-10T00:54:44.809Z,5.80
2019-06-10T00:57:14.440Z,5.90
2019-06-10T00:59:43.968Z,7.33
2019-06-10T01:02:14.540Z,7.20
2019-06-10T01:04:44.189Z,7.00
2019-06-10T01:07:14.895Z,7.67
2019-06-10T01:09:44.562Z,6.78
2019-06-10T01:12:14.927Z,7.72
2019-06-10T01:14:44.802Z,7.28
2019-06-10T01:17:15.446Z,8.13
2019-06-10T01:19:45.218Z,11.03
2019-06-10T01:22:15.921Z,9.73
2019-06-10T01:24:45.883Z,8.83
2019-06-10T01:27:15.797Z,7.45
2019-06-10T01:29:45.378Z,7.67
2019-06-10T01:32:15.114Z,6.85
2019-06-10T01:34:44.816Z,6.90
2019-06-10T01:37:15.898Z,6.97
2019-06-10T01:39:45.574Z,6.33
2019-06-10T01:42:15.883Z,6.50
2019-06-10T01:44:46.283Z,7.67
2019-06-10T01:47:17.170Z,8.15
2019-06-10T01:49:47.110Z,7.10
2019-06-10T01:52:18.184Z,6.65
2019-06-10T01:54:47.991Z,7.05
2019-06-10T01:57:18.668Z,7.47
2019-06-10T01:59:50.705Z,7.17
2019-06-10T02:02:23.778Z,7.65
2019-06-10T02:04:53.811Z,11.38
2019-06-10T02:07:23.828Z,11.10
2019-06-10T02:09:53.707Z,8.70
2019-06-10T02:12:23.999Z,7.62
2019-06-10T02:14:53.972Z,7.83
2019-06-10T02:17:24.066Z,6.83
2019-06-10T02:19:54.203Z,7.55
2019-06-10T02:22:24.427Z,7.22
2019-06-10T02:24:54.049Z,6.67
2019-06-10T02:27:23.961Z,6.20
2019-06-10T02:29:53.796Z,7.00
2019-06-10T02:32:31.769Z,6.80
2019-06-10T02:35:08.301Z,6.85
2019-06-10T02:37:32.625Z,7.45
2019-06-10T02:39:57.293Z,7.30
2019-06-10T02:42:35.570Z,6.60
2019-06-10T02:45:03.968Z,6.30
2019-06-10T02:47:38.000Z,6.37
2019-06-10T02:50:08.568Z,6.62
2019-06-10T02:52:38.759Z,7.00
2019-06-10T02:55:08.800Z,7.60
2019-06-10T02:57:40.213Z,6.70
2019-06-10T03:00:20.577Z,7.00
2019-06-10T03:02:45.072Z,7.50
2019-06-10T03:05:16.919Z,6.97
2019-06-10T03:07:45.740Z,7.10
2019-06-10T03:10:16.290Z,6.95
2019-06-10T03:12:46.637Z,6.30
2019-06-10T03:15:16.202Z,6.25
2019-06-10T03:17:45.736Z,6.10
2019-06-10T03:20:15.986Z,6.37
2019-06-10T03:22:45.683Z,5.70
2019-06-10T03:25:16.348Z,6.83
2019-06-10T03:27:46.063Z,7.40
2019-06-10T03:30:22.061Z,7.00
2019-06-10T03:32:47.708Z,6.42
2019-06-10T03:35:17.512Z,6.78
2019-06-10T03:37:47.015Z,6.85
2019-06-10T03:40:16.611Z,7.80
2019-06-10T03:42:46.113Z,7.95
2019-06-10T03:45:17.262Z,7.08
2019-06-10T03:47:47.035Z,7.87
2019-06-10T03:50:17.193Z,7.87
2019-06-10T03:52:46.831Z,6.60
2019-06-10T03:55:17.232Z,7.22
2019-06-10T03:57:47.399Z,7.45
2019-06-10T04:00:19.512Z,6.65
2019-06-10T04:02:49.143Z,6.92
2019-06-10T04:05:19.453Z,7.10
2019-06-10T04:07:49.430Z,6.97
2019-06-10T04:10:19.544Z,7.28
2019-06-10T04:12:49.273Z,7.20
2019-06-10T04:15:19.730Z,6.62
2019-06-10T04:17:49.395Z,7.10
2019-06-10T04:20:19.758Z,7.37
2019-06-10T04:22:49.441Z,7.00
2019-06-10T04:25:19.821Z,7.47
2019-06-10T04:27:49.472Z,6.45
2019-06-10T04:30:23.195Z,7.05
2019-06-10T04:32:52.899Z,7.30
2019-06-10T04:35:23.369Z,6.75
2019-06-10T04:37:54.146Z,7.35
2019-06-10T04:40:26.292Z,7.28
2019-06-10T04:42:55.739Z,6.40
2019-06-10T04:45:26.526Z,6.80
2019-06-10T04:47:56.406Z,6.95
2019-06-10T04:50:35.044Z,7.10
2019-06-10T04:52:57.139Z,6.35
2019-06-10T04:55:27.738Z,6.77
2019-06-10T04:57:57.710Z,6.95
2019-06-10T05:00:28.760Z,7.25
2019-06-10T05:02:58.731Z,6.80
2019-06-10T05:05:28.843Z,6.80
2019-06-10T05:07:59.504Z,7.27
2019-06-10T05:10:29.922Z,7.63
2019-06-10T05:12:59.876Z,7.60
2019-06-10T05:15:31.524Z,7.37
2019-06-10T05:18:03.165Z,7.23
2019-06-10T05:20:46.754Z,6.77
2019-06-10T05:23:03.301Z,7.17
2019-06-10T05:25:32.885Z,7.20
2019-06-10T05:28:02.920Z,6.97
2019-06-10T05:30:34.059Z,7.17
2019-06-10T05:33:03.859Z,6.23
2019-06-10T05:35:34.051Z,6.80
2019-06-10T05:38:03.672Z,7.40
2019-06-10T05:40:34.238Z,8.13
2019-06-10T05:43:03.903Z,6.83
2019-06-10T05:45:35.162Z,6.77
2019-06-10T05:48:04.746Z,6.63
2019-06-10T05:50:34.979Z,7.20
2019-06-10T05:53:04.793Z,6.60
2019-06-10T05:55:35.249Z,6.50
2019-06-10T05:58:05.223Z,5.50
2019-06-10T06:00:35.570Z,6.17
2019-06-10T06:03:05.180Z,5.80
2019-06-10T06:05:36.193Z,5.40
2019-06-10T06:08:08.773Z,5.80
2019-06-10T06:10:37.820Z,5.33
2019-06-10T06:13:07.565Z,5.70
2019-06-10T06:15:38.066Z,5.30
2019-06-10T06:18:10.840Z,5.23
2019-06-10T06:20:39.400Z,5.53
2019-06-10T06:23:09.254Z,4.80
2019-06-10T06:25:43.197Z,5.40
2019-06-10T06:28:12.945Z,4.50
2019-06-10T06:30:43.402Z,4.70
2019-06-10T06:33:13.874Z,5.20
2019-06-10T06:35:46.324Z,4.60
2019-06-10T06:38:14.640Z,4.90
2019-06-10T06:40:44.203Z,5.10
2019-06-10T06:43:14.331Z,4.73
2019-06-10T06:45:43.873Z,4.60
2019-06-10T06:48:13.749Z,4.60
2019-06-10T06:51:00.228Z,5.43
2019-06-10T06:53:24.585Z,4.30
2019-06-10T06:55:46.177Z,5.40
2019-06-10T06:58:15.715Z,4.27
2019-06-10T07:01:00.577Z,4.90
2019-06-10T07:03:16.477Z,5.10
2019-06-10T07:05:47.124Z,5.03
2019-06-10T07:08:17.347Z,4.60
2019-06-10T07:10:48.281Z,5.30
2019-06-10T07:13:17.783Z,5.13
2019-06-10T07:15:47.930Z,4.97
2019-06-10T07:18:18.453Z,4.90
2019-06-10T07:20:48.009Z,5.30
2019-06-10T07:23:17.616Z,5.60
2019-06-10T07:25:47.814Z,5.30
2019-06-10T07:28:17.753Z,5.30
2019-06-10T07:30:51.711Z,5.80
2019-06-10T07:33:18.851Z,5.00
2019-06-10T07:35:48.499Z,5.77
2019-06-10T07:38:18.023Z,5.27
2019-06-10T07:40:48.561Z,5.07
2019-06-10T07:43:18.106Z,4.73
2019-06-10T07:45:48.168Z,4.70
2019-06-10T07:48:18.636Z,6.00
2019-06-10T07:50:48.551Z,5.67
2019-06-10T07:53:18.085Z,5.13
2019-06-10T07:55:48.019Z,5.80
2019-06-10T07:58:18.013Z,4.33
2019-06-10T08:00:48.627Z,5.40
2019-06-10T08:03:18.423Z,5.53
2019-06-10T08:05:48.307Z,5.23
2019-06-10T08:08:20.394Z,5.30
2019-06-10T08:10:53.479Z,5.20
2019-06-10T08:13:23.676Z,5.33
2019-06-10T08:15:54.817Z,5.07
2019-06-10T08:18:57.026Z,5.37
2019-06-10T08:21:17.277Z,5.30
2019-06-10T08:23:48.679Z,5.70
2019-06-10T08:26:18.296Z,6.00
2019-06-10T08:28:48.400Z,5.20
2019-06-10T08:31:18.949Z,5.37
2019-06-10T08:33:49.184Z,5.53
2019-06-10T08:36:18.722Z,5.23
2019-06-10T08:38:48.848Z,5.03
2019-06-10T08:41:18.626Z,5.03
2019-06-10T08:43:49.329Z,5.77
2019-06-10T08:46:18.777Z,5.50
2019-06-10T08:48:49.617Z,5.27
2019-06-10T08:51:19.643Z,5.40
2019-06-10T08:53:50.092Z,5.70
2019-06-10T08:56:28.418Z,4.77
2019-06-10T08:58:57.969Z,5.30
2019-06-10T09:01:27.822Z,5.27
2019-06-10T09:03:57.319Z,4.90
2019-06-10T09:06:26.785Z,5.23
2019-06-10T09:08:56.397Z,5.40
2019-06-10T09:11:25.952Z,5.07
2019-06-10T09:13:55.475Z,5.53
2019-06-10T09:16:24.948Z,5.97
2019-06-10T09:18:55.476Z,5.70
2019-06-10T09:21:25.324Z,5.37
2019-06-10T09:23:59.779Z,5.10
2019-06-10T09:26:26.792Z,5.60
2019-06-10T09:28:56.670Z,6.00
2019-06-10T09:31:26.613Z,5.00
2019-06-10T09:33:57.072Z,5.27
2019-06-10T09:36:26.719Z,5.30
2019-06-10T09:38:56.327Z,5.60
2019-06-10T09:41:36.415Z,6.43
2019-06-10T09:43:57.347Z,5.57
2019-06-10T09:46:28.945Z,5.73
2019-06-10T09:48:58.963Z,5.40
2019-06-10T09:51:28.997Z,5.87
2019-06-10T09:54:03.598Z,5.33
2019-06-10T09:56:30.078Z,5.50
2019-06-10T09:58:59.812Z,5.40
2019-06-10T10:01:29.377Z,5.67
2019-06-10T10:04:00.367Z,5.77
2019-06-10T10:06:32.733Z,5.70
2019-06-10T10:09:03.993Z,5.43
2019-06-10T10:11:33.194Z,5.30
2019-06-10T10:14:08.096Z,6.07
2019-06-10T10:16:34.122Z,5.93
2019-06-10T10:19:05.175Z,5.57
2019-06-10T10:21:35.081Z,6.10
2019-06-10T10:24:10.590Z,5.37
2019-06-10T10:26:35.885Z,5.80
2019-06-10T10:29:05.501Z,5.60
2019-06-10T10:31:35.045Z,5.43
2019-06-10T10:34:04.648Z,6.20
2019-06-10T10:36:34.241Z,5.43
2019-06-10T10:39:24.653Z,5.30
2019-06-10T10:41:56.922Z,5.40
2019-06-10T10:44:25.560Z,5.50
2019-06-10T10:49:44.987Z,5.30
2019-06-10T10:52:14.680Z,5.70
2019-06-10T10:54:45.082Z,5.90
2019-06-10T10:57:15.397Z,5.80
2019-06-10T10:59:46.220Z,6.03
2019-06-10T11:02:16.732Z,5.87
2019-06-10T11:04:48.009Z,5.97
2019-06-10T11:07:17.992Z,6.03
2019-06-10T11:09:48.556Z,6.10
2019-06-10T11:12:19.258Z,6.03
2019-06-10T11:14:49.513Z,6.37
2019-06-10T11:17:19.035Z,5.20
2019-06-10T11:19:49.311Z,5.40
2019-06-10T11:22:19.101Z,5.20
2019-06-10T11:24:49.270Z,5.67
2019-06-10T11:27:18.865Z,5.60
2019-06-10T11:29:48.472Z,4.90
2019-06-10T11:32:18.220Z,5.87
2019-06-10T11:34:48.175Z,6.30
2019-06-10T11:37:18.017Z,6.70
2019-06-10T11:39:48.140Z,5.27
2019-06-10T11:42:18.081Z,5.80
2019-06-10T11:44:48.410Z,7.63
2019-06-10T11:47:18.058Z,6.20
2019-06-10T11:49:53.472Z,6.13
2019-06-10T11:52:23.054Z,6.37
2019-06-10T11:55:07.250Z,5.90
2019-06-10T11:57:23.874Z,5.70
2019-06-10T11:59:55.932Z,5.73
2019-06-10T12:02:25.000Z,6.30
2019-06-10T12:04:56.362Z,5.60
2019-06-10T12:07:26.603Z,5.50
2019-06-10T12:09:59.079Z,5.73
2019-06-10T12:12:27.277Z,6.13
2019-06-10T12:14:59.309Z,6.00
2019-06-10T12:17:41.997Z,5.80
2019-06-10T12:20:02.571Z,6.30
2019-06-10T12:22:32.957Z,5.30
2019-06-10T12:25:26.369Z,6.07
2019-06-10T12:27:33.129Z,6.20
2019-06-10T12:30:04.958Z,5.43
2019-06-10T12:32:33.968Z,4.57
2019-06-10T12:35:05.345Z,4.87
2019-06-10T12:37:35.081Z,5.20
2019-06-10T12:40:06.052Z,5.10
2019-06-10T12:42:35.915Z,5.60
2019-06-10T12:45:08.501Z,5.57
2019-06-10T12:47:38.089Z,5.30
2019-06-10T12:50:08.936Z,5.43
2019-06-10T12:52:39.152Z,5.53
2019-06-10T12:55:09.271Z,6.30
2019-06-10T12:57:38.957Z,4.70
2019-06-10T13:00:19.684Z,5.93
2019-06-10T13:02:42.744Z,5.50
2019-06-10T13:05:12.519Z,4.80
2019-06-10T13:07:43.743Z,5.83
2019-06-10T13:10:14.953Z,6.13
2019-06-10T13:12:44.632Z,5.50
2019-06-10T13:15:14.476Z,5.93
2019-06-10T13:17:44.189Z,5.27
2019-06-10T13:20:13.939Z,5.83
2019-06-10T13:22:43.912Z,5.93
2019-06-10T13:25:13.638Z,5.80
2019-06-10T13:27:43.208Z,5.83
2019-06-10T13:30:14.715Z,6.30
2019-06-10T13:32:44.170Z,5.67
2019-06-10T13:35:14.122Z,5.70
2019-06-10T13:37:43.669Z,5.93
2019-06-10T13:40:13.786Z,6.17
2019-06-10T13:42:46.529Z,6.10
2019-06-10T13:45:16.383Z,5.80
2019-06-10T13:47:46.564Z,6.20
2019-06-10T13:50:19.276Z,5.77
2019-06-10T13:52:47.760Z,5.13
2019-06-10T13:55:18.177Z,5.90
2019-06-10T13:57:47.778Z,6.20
2019-06-10T14:00:19.371Z,5.70
2019-06-10T14:02:49.255Z,5.70
2019-06-10T14:05:18.950Z,6.70
2019-06-10T14:07:49.013Z,6.90
2019-06-10T14:10:19.331Z,6.87
2019-06-10T14:12:49.245Z,7.13
2019-06-10T14:15:19.123Z,6.07
2019-06-10T14:17:49.276Z,5.80
2019-06-10T14:20:18.991Z,6.27
2019-06-10T14:22:48.476Z,5.83
2019-06-10T14:25:18.062Z,8.17
2019-06-10T14:27:49.953Z,5.90
2019-06-10T14:30:20.112Z,5.37
2019-06-10T14:32:49.615Z,5.80
2019-06-10T14:35:19.232Z,5.93
2019-06-10T14:37:49.223Z,5.53
2019-06-10T14:40:20.897Z,5.43
2019-06-10T14:42:52.497Z,5.97
2019-06-10T14:45:23.171Z,6.47
2019-06-10T14:47:54.414Z,5.50
2019-06-10T14:50:24.440Z,5.93
2019-06-10T14:52:54.186Z,5.07
2019-06-10T14:55:23.808Z,5.10
2019-06-10T14:57:53.459Z,5.60
2019-06-10T15:00:23.735Z,5.47
2019-06-10T15:02:54.062Z,5.80
2019-06-10T15:05:23.915Z,6.43
2019-06-10T15:07:53.548Z,5.30
2019-06-10T15:10:23.473Z,6.57
2019-06-10T15:12:53.180Z,5.40
2019-06-10T15:15:23.798Z,5.63
2019-06-10T15:17:53.403Z,6.20
2019-06-10T15:20:22.951Z,5.60
2019-06-10T15:22:52.776Z,6.07
2019-06-10T15:25:27.340Z,5.87
2019-06-10T15:27:54.057Z,5.17
2019-06-10T15:30:28.105Z,5.73
2019-06-10T15:32:55.471Z,5.63
2019-06-10T15:35:25.197Z,6.80
2019-06-10T15:37:54.725Z,5.40
2019-06-10T15:40:24.292Z,5.40
2019-06-10T15:42:53.845Z,6.03
2019-06-10T15:45:23.832Z,5.03
2019-06-10T15:47:53.946Z,5.27
2019-06-10T15:50:25.439Z,6.13
2019-06-10T15:53:17.033Z,5.47
2019-06-10T15:56:08.913Z,5.33
2019-06-10T15:58:17.806Z,5.80
2019-06-10T16:00:48.272Z,6.30
2019-06-10T16:03:19.319Z,6.23
2019-06-10T16:05:49.169Z,6.00
2019-06-10T16:08:18.768Z,6.20
2019-06-10T16:10:48.732Z,6.90
2019-06-10T16:13:18.597Z,6.80
2019-06-10T16:15:48.669Z,6.87
2019-06-10T16:18:18.836Z,6.83
2019-06-10T16:20:52.501Z,6.77
2019-06-10T16:23:24.522Z,6.80
2019-06-10T16:25:53.369Z,6.90
2019-06-10T16:28:26.324Z,7.27
2019-06-10T16:30:55.927Z,7.40
2019-06-10T16:33:28.160Z,7.03
2019-06-10T16:36:17.270Z,7.17
2019-06-10T16:38:46.835Z,6.73
2019-06-10T16:41:17.544Z,7.13
2019-06-10T16:43:47.456Z,7.43
2019-06-10T16:46:18.249Z,7.73
2019-06-10T16:48:49.233Z,7.10
2019-06-10T16:51:19.459Z,6.30
2019-06-10T16:53:49.300Z,7.80
2019-06-10T16:56:19.677Z,6.90
2019-06-10T16:58:49.601Z,6.87
2019-06-10T17:01:20.281Z,6.90
2019-06-10T17:03:52.454Z,6.97
2019-06-10T17:06:22.469Z,7.13
2019-06-10T17:08:52.889Z,6.80
2019-06-10T17:11:24.197Z,7.10
2019-06-10T17:13:54.357Z,6.97
2019-06-10T17:16:26.002Z,6.60
2019-06-10T17:18:55.196Z,7.63
2019-06-10T17:21:28.723Z,7.00
2019-06-10T17:23:56.320Z,6.73
2019-06-10T17:26:30.717Z,7.50
2019-06-10T17:28:57.069Z,7.40
2019-06-10T17:31:30.535Z,8.00
2019-06-10T17:33:58.192Z,7.10
2019-06-10T17:36:30.833Z,7.37
2019-06-10T17:38:59.272Z,6.77
2019-06-10T17:41:30.528Z,7.40
2019-06-10T17:44:02.507Z,7.57
2019-06-10T17:46:34.958Z,7.27
2019-06-10T17:49:02.738Z,7.23
2019-06-10T17:51:35.505Z,9.00
2019-06-10T17:54:03.807Z,8.47
2019-06-10T17:56:35.917Z,7.50
2019-06-10T17:59:04.536Z,7.40
2019-06-10T18:01:35.537Z,7.20
2019-06-10T18:04:06.490Z,9.03
2019-06-10T18:06:36.534Z,9.53
2019-06-10T18:09:07.559Z,7.30
2019-06-10T18:11:38.031Z,7.60
2019-06-10T18:14:07.536Z,7.73
2019-06-10T18:16:37.471Z,6.93
2019-06-10T18:19:07.008Z,7.80
2019-06-10T18:21:36.657Z,7.73
2019-06-10T18:24:08.436Z,6.93
2019-06-10T18:26:38.078Z,7.93
2019-06-10T18:29:09.171Z,7.30
2019-06-10T18:31:39.200Z,8.80
2019-06-10T18:34:08.760Z,7.87
2019-06-10T18:36:38.781Z,7.90
2019-06-10T18:39:08.857Z,7.53
2019-06-10T18:41:40.090Z,7.40
2019-06-10T18:44:22.591Z,8.20
2019-06-10T18:46:43.357Z,8.13
2019-06-10T18:49:13.565Z,8.30
2019-06-10T18:51:43.612Z,8.13
2019-06-10T18:54:13.460Z,9.60
2019-06-10T18:56:44.814Z,8.17
2019-06-10T18:59:20.783Z,7.77
2019-06-10T19:01:46.324Z,8.40
2019-06-10T19:04:15.932Z,8.40
2019-06-10T19:06:45.436Z,8.43
2019-06-10T19:09:15.702Z,9.10
2019-06-10T19:11:45.229Z,9.20
2019-06-10T19:14:15.841Z,13.20
2019-06-10T19:16:45.438Z,15.93
2019-06-10T19:19:15.978Z,14.97
2019-06-10T19:21:59.161Z,13.60
2019-06-10T19:24:17.264Z,12.70
2019-06-10T19:26:46.800Z,11.63
2019-06-10T19:29:29.978Z,10.87
2019-06-10T19:31:47.880Z,10.97
2019-06-10T19:34:19.402Z,10.47
2019-06-10T19:36:48.908Z,10.80
2019-06-10T19:39:18.897Z,12.80
2019-06-10T19:41:48.551Z,12.37
2019-06-10T19:44:18.932Z,12.53
2019-06-10T19:46:48.917Z,15.43
2019-06-10T19:49:18.813Z,17.23
2019-06-10T19:51:48.292Z,16.37
2019-06-10T19:54:17.937Z,15.67
2019-06-10T19:56:47.908Z,13.13
2019-06-10T19:59:17.428Z,12.70
2019-06-10T20:01:48.777Z,11.70
2019-06-10T20:04:18.393Z,11.30
2019-06-10T20:06:50.674Z,11.00
2019-06-10T20:09:19.370Z,10.43
2019-06-10T20:11:49.196Z,10.00
2019-06-10T20:14:19.117Z,9.40
2019-06-10T20:16:48.856Z,9.80
2019-06-10T20:19:18.437Z,10.10
2019-06-10T20:21:48.924Z,9.50
2019-06-10T20:24:19.002Z,10.73
2019-06-10T20:26:49.390Z,10.90
2019-06-10T20:29:22.036Z,10.40
2019-06-10T20:31:52.376Z,10.43
2019-06-10T20:34:24.441Z,10.73
2019-06-10T20:36:54.008Z,10.80
2019-06-10T20:39:24.807Z,9.80
2019-06-10T20:41:55.745Z,9.83
2019-06-10T20:44:25.606Z,10.10
2019-06-10T20:46:55.582Z,11.90
2019-06-10T20:49:25.065Z,10.63
2019-06-10T20:52:06.681Z,10.77
2019-06-10T20:54:25.880Z,11.50
2019-06-10T20:56:55.894Z,10.37
2019-06-10T20:59:26.191Z,10.83
2019-06-10T21:01:55.971Z,10.80
2019-06-10T21:04:25.572Z,9.67
2019-06-10T21:06:56.320Z,10.10
2019-06-10T21:09:27.727Z,10.20
2019-06-10T21:11:57.716Z,11.17
2019-06-10T21:14:27.285Z,9.00
2019-06-10T21:16:56.933Z,9.80
2019-06-10T21:19:26.466Z,9.33
2019-06-10T21:21:56.355Z,9.07
2019-06-10T21:24:26.372Z,9.30
2019-06-10T21:26:55.912Z,10.37
2019-06-10T21:29:25.577Z,8.80
2019-06-10T21:31:55.237Z,8.20
2019-06-10T21:34:24.899Z,10.20
2019-06-10T21:36:54.606Z,8.47
2019-06-10T21:39:24.409Z,9.30
2019-06-10T21:41:54.732Z,8.83
2019-06-10T21:44:24.274Z,8.20
2019-06-10T21:46:53.815Z,9.67
2019-06-10T21:49:23.836Z,9.00
2019-06-10T21:51:56.849Z,8.27
2019-06-10T21:54:25.039Z,10.33
2019-06-10T21:56:55.613Z,9.23
2019-06-10T21:59:25.380Z,9.90
2019-06-10T22:01:54.883Z,9.20
2019-06-10T22:04:24.472Z,8.97
2019-06-10T22:06:55.963Z,9.23
2019-06-10T22:09:25.190Z,8.77
2019-06-10T22:11:55.905Z,9.17
2019-06-10T22:14:25.573Z,8.77
2019-06-10T22:16:56.505Z,8.70
2019-06-10T22:19:26.560Z,9.67
2019-06-10T22:21:56.845Z,10.47
2019-06-10T22:24:26.494Z,9.20
2019-06-10T22:26:55.989Z,8.80
2019-06-10T22:29:25.918Z,9.00
2019-06-10T22:31:57.062Z,8.80
2019-06-10T22:34:26.613Z,8.70
2019-06-10T22:36:57.636Z,5.87
2019-06-10T22:39:27.393Z,6.77
2019-06-10T22:41:57.820Z,5.00
2019-06-10T22:44:27.379Z,3.47
2019-06-10T22:46:57.364Z,2.40
2019-06-10T22:49:27.070Z,3.17
2019-06-10T22:51:58.638Z,2.60
2019-06-10T22:54:27.811Z,2.12
2019-06-10T22:56:58.428Z,2.85
2019-06-10T22:59:28.145Z,2.70
2019-06-10T23:01:58.675Z,2.40
2019-06-10T23:04:29.136Z,1.90
2019-06-10T23:06:59.782Z,1.70
2019-06-10T23:09:29.903Z,1.65
2019-06-10T23:11:59.509Z,1.70
2019-06-10T23:14:29.167Z,1.42
2019-06-10T23:17:00.151Z,1.98
2019-06-10T23:19:30.244Z,1.60
2019-06-10T23:22:00.598Z,2.08
2019-06-10T23:24:32.277Z,1.60
2019-06-10T23:27:03.099Z,1.77
2019-06-10T23:29:33.056Z,1.90
2019-06-10T23:32:06.675Z,1.45
2019-06-10T23:34:33.750Z,1.60
2019-06-10T23:37:03.376Z,1.77
2019-06-10T23:39:33.525Z,1.52
2019-06-10T23:42:04.191Z,2.20
2019-06-10T23:44:34.085Z,2.47
2019-06-10T23:47:04.208Z,2.15
2019-06-10T23:49:34.107Z,2.60
2019-06-10T23:52:05.530Z,2.52
2019-06-10T23:54:35.332Z,2.62
2019-06-10T23:57:06.051Z,2.85
2019-06-10T23:59:36.064Z,3.08
